Time;durP1;ratioP1;P1;durP2;ratioP2;P2;SDS_P1;SDS_P2;PMS_P1;PMS_P2;Temp;Humidity;BMP_temperature;BMP_pressure;BME280_temperature;BME280_humidity;BME280_pressure;Samples;Min_cycle;Max_cycle;Signal;HPM_P1;HPM_P2
2022/10/03 00:00:07;;;;;;;;;14.60;14.60;;;;;15.18;71.30;102029.09;5001683;28;46759;-60
2022/10/03 00:03:06;;;;;;;;;13.00;10.60;;;;;15.09;71.72;102030.34;5016519;28;45541;-59
2022/10/03 00:05:55;;;;;;;;;12.20;12.20;;;;;15.09;71.84;102029.53;5017528;28;45737;-60
2022/10/03 00:08:45;;;;;;;;;14.20;11.20;;;;;15.13;71.26;102028.00;5017286;28;45536;-59
2022/10/03 00:11:26;;;;;;;;;14.00;14.00;;;;;14.53;71.10;101935.63;4999307;28;47529;-60
2022/10/03 00:13:59;;;;;;;;;15.20;13.20;;;;;15.13;71.10;102039.06;4998902;28;45445;-61
2022/10/03 00:16:28;;;;;;;;;10.80;10.80;;;;;14.98;71.43;102017.16;4983247;28;45475;-59
2022/10/03 00:18:59;;;;;;;;;15.00;12.80;;;;;15.10;71.31;102042.28;4964912;28;45372;-59
2022/10/03 00:21:38;;;;;;;;;14.20;12.60;;;;;15.13;71.44;102050.13;5015021;28;45960;-59
2022/10/03 00:24:17;;;;;;;;;14.40;12.80;;;;;15.15;71.08;102045.25;4998773;28;45388;-59
2022/10/03 00:26:51;;;;;;;;;14.60;13.40;;;;;14.91;71.17;102000.56;5016969;28;45284;-59
2022/10/03 00:29:25;;;;;;;;;10.00;10.00;;;;;15.11;71.29;102028.22;5015629;28;45211;-59
2022/10/03 00:32:14;;;;;;;;;15.60;14.00;;;;;15.14;71.35;102033.34;5016653;28;45387;-61
2022/10/03 00:35:24;;;;;;;;;15.60;13.40;;;;;15.11;71.16;102041.22;5016652;28;45369;-59
2022/10/03 00:38:22;;;;;;;;;15.80;11.40;;;;;15.06;71.35;102038.22;5015290;28;45562;-61
2022/10/03 00:41:16;;;;;;;;;13.40;12.20;;;;;15.08;71.05;102039.72;5016757;28;45367;-60
2022/10/03 00:44:06;;;;;;;;;8.80;8.80;;;;;15.10;71.31;102039.50;5016591;28;45353;-60
2022/10/03 00:46:54;;;;;;;;;9.00;9.00;;;;;15.06;71.46;102044.63;5016469;28;45858;-60
2022/10/03 00:49:47;;;;;;;;;8.00;8.00;;;;;14.80;71.75;102017.75;4998709;28;45391;-60
2022/10/03 00:52:24;;;;;;;;;11.80;9.40;;;;;14.93;71.76;102036.28;5016717;28;45554;-58
2022/10/03 00:55:21;;;;;;;;;10.40;10.00;;;;;14.90;72.12;102045.84;5016473;28;45513;-59
2022/10/03 00:58:39;;;;;;;;;12.40;6.60;;;;;14.69;72.19;102019.19;4984866;28;45894;-60
2022/10/03 01:01:28;;;;;;;;;8.00;8.00;;;;;14.90;71.65;102043.09;4961711;28;45347;-60
2022/10/03 01:04:26;;;;;;;;;8.40;7.40;;;;;14.93;71.56;102041.81;4998551;28;45288;-60
2022/10/03 01:07:20;;;;;;;;;9.20;9.20;;;;;14.81;71.86;102017.56;5016467;28;45493;-60
2022/10/03 01:09:58;;;;;;;;;10.20;9.00;;;;;14.96;71.44;102041.38;4998979;28;45349;-59
2022/10/03 01:13:10;;;;;;;;;13.20;13.20;;;;;14.92;71.66;102043.72;5015878;28;45528;-59
2022/10/03 01:15:55;;;;;;;;;8.20;7.40;;;;;14.90;71.84;102034.81;4994441;28;45505;-59
2022/10/03 01:18:23;;;;;;;;;8.20;8.00;;;;;14.93;72.01;102028.84;4981667;28;47749;-59
2022/10/03 01:21:33;;;;;;;;;9.40;8.40;;;;;14.97;71.63;102043.97;5015412;28;45480;-59
2022/10/03 01:24:36;;;;;;;;;8.60;8.00;;;;;14.98;71.42;102045.66;4994872;28;45396;-59
2022/10/03 01:27:06;;;;;;;;;11.00;9.00;;;;;14.98;71.32;102045.66;5016155;28;45261;-59
2022/10/03 01:32:48;;;;;;;;;9.60;7.60;;;;;14.89;71.77;102028.41;5000772;28;45560;-59
2022/10/03 01:35:32;;;;;;;;;11.80;10.20;;;;;14.89;71.24;102031.16;4998640;28;45464;-58
2022/10/03 01:38:33;;;;;;;;;8.00;8.00;;;;;14.93;71.77;102042.66;5016381;28;45585;-59
2022/10/03 01:41:18;;;;;;;;;9.00;7.80;;;;;14.89;71.60;102041.41;4948832;28;45526;-59
2022/10/03 01:43:50;;;;;;;;;9.80;8.20;;;;;14.87;72.13;102038.84;5015659;28;45513;-59
2022/10/03 01:46:22;;;;;;;;;7.60;7.60;;;;;14.88;71.75;102037.78;4978398;28;45308;-59
2022/10/03 01:48:47;;;;;;;;;9.00;8.00;;;;;14.84;71.99;102035.63;4978539;28;45357;-59
2022/10/03 01:51:47;;;;;;;;;7.75;6.50;;;;;14.82;71.65;102038.59;4995991;28;46244;-59
2022/10/03 01:54:30;;;;;;;;;9.80;7.00;;;;;14.56;72.15;102008.97;4990029;28;45732;-60
2022/10/03 01:57:10;;;;;;;;;9.00;8.60;;;;;14.71;72.20;102030.88;4996697;28;45441;-60
2022/10/03 01:59:51;;;;;;;;;9.40;9.40;;;;;14.69;72.23;102024.72;5010995;28;45310;-60
2022/10/03 02:02:19;;;;;;;;;8.60;8.60;;;;;14.70;72.88;102018.13;4996455;28;47486;-59
2022/10/03 02:05:00;;;;;;;;;12.20;7.40;;;;;14.55;72.46;102010.00;5014238;28;45318;-59
2022/10/03 02:07:34;;;;;;;;;9.20;8.60;;;;;14.58;72.84;102028.94;5015564;28;45553;-59
2022/10/03 02:10:02;;;;;;;;;8.00;8.00;;;;;14.36;72.44;101976.59;5015623;28;45355;-59
2022/10/03 02:12:38;;;;;;;;;6.80;6.60;;;;;14.62;72.44;102039.38;4997674;28;45491;-59
2022/10/03 02:15:04;;;;;;;;;5.80;5.80;;;;;14.62;72.70;102019.19;5015004;28;45371;-60
2022/10/03 02:17:51;;;;;;;;;6.60;6.60;;;;;14.69;72.23;102022.81;5015467;28;45324;-59
2022/10/03 02:20:47;;;;;;;;;5.20;5.20;;;;;14.64;72.67;102026.19;5015293;28;45384;-59
2022/10/03 02:23:22;;;;;;;;;6.20;5.80;;;;;14.54;72.63;102028.50;4997790;28;45606;-59
2022/10/03 02:26:21;;;;;;;;;6.80;6.80;;;;;14.47;73.38;102030.41;5014756;28;45307;-60
2022/10/03 02:29:09;;;;;;;;;6.00;6.00;;;;;14.45;73.28;102033.34;5014857;28;45375;-59
2022/10/03 02:31:44;;;;;;;;;6.00;4.60;;;;;14.54;73.31;102027.63;4997297;28;45296;-59
2022/10/03 02:34:31;;;;;;;;;6.00;6.00;;;;;14.58;73.30;102020.66;5014539;28;46576;-59
2022/10/03 02:37:14;;;;;;;;;8.00;6.00;;;;;14.62;72.83;102025.53;5015053;28;45367;-60
2022/10/03 02:40:04;;;;;;;;;7.60;7.40;;;;;14.63;72.69;102026.41;5015035;28;45293;-59
2022/10/03 02:42:56;;;;;;;;;7.00;7.00;;;;;14.18;72.64;101950.41;4997245;28;45633;-61
2022/10/03 02:45:24;;;;;;;;;7.40;7.40;;;;;14.64;72.85;102026.19;4997721;28;46434;-60
2022/10/03 02:47:59;;;;;;;;;7.60;7.00;;;;;14.56;72.61;102026.38;4996698;28;45446;-60
2022/10/03 02:50:53;;;;;;;;;11.60;10.60;;;;;14.57;72.50;102025.31;5013450;28;45450;-61
2022/10/03 02:53:46;;;;;;;;;7.20;7.00;;;;;14.60;72.63;102035.97;5013542;28;45410;-59
2022/10/03 02:56:11;;;;;;;;;7.40;7.40;;;;;14.56;72.86;102034.66;4996595;28;46331;-59
2022/10/03 02:58:51;;;;;;;;;10.25;10.25;;;;;14.56;72.91;102018.09;5014453;28;45416;-59
2022/10/03 03:01:26;;;;;;;;;11.60;11.60;;;;;14.58;73.20;102027.00;5014495;28;45450;-59
2022/10/03 03:04:13;;;;;;;;;13.00;7.60;;;;;14.55;73.15;102023.81;5014727;28;45442;-59
2022/10/03 03:07:01;;;;;;;;;11.80;8.00;;;;;14.56;73.00;102025.53;5013112;28;46711;-59
2022/10/03 03:09:39;;;;;;;;;11.60;11.60;;;;;14.59;72.86;102019.59;4996478;28;45494;-59
2022/10/03 03:12:16;;;;;;;;;12.60;9.40;;;;;14.53;72.77;102006.59;5014468;28;45347;-59
2022/10/03 03:15:19;;;;;;;;;10.20;8.80;;;;;14.59;72.86;102030.63;5014558;28;45429;-59
2022/10/03 03:18:21;;;;;;;;;16.00;11.80;;;;;14.61;72.73;102032.13;5014034;28;46418;-59
2022/10/03 03:20:56;;;;;;;;;8.40;8.40;;;;;14.60;72.37;102018.53;4992134;28;45548;-59
2022/10/03 03:23:45;;;;;;;;;11.40;9.40;;;;;14.49;72.69;101997.88;4996223;28;45364;-59
2022/10/03 03:26:24;;;;;;;;;12.60;9.80;;;;;14.60;73.07;102027.69;5014491;28;45471;-59
2022/10/03 03:29:09;;;;;;;;;12.80;10.80;;;;;14.22;73.35;101976.56;5013953;28;45429;-59
2022/10/03 03:31:42;;;;;;;;;13.60;12.40;;;;;14.50;73.24;102021.69;5013072;28;45408;-59
2022/10/03 03:34:17;;;;;;;;;13.60;11.20;;;;;14.49;73.57;102028.25;5012994;28;45419;-59
2022/10/03 03:36:50;;;;;;;;;10.80;10.00;;;;;14.45;73.93;102022.31;5000019;28;45582;-59
2022/10/03 03:39:23;;;;;;;;;10.00;9.60;;;;;14.26;74.17;101995.47;5016089;28;47457;-59
2022/10/03 03:41:57;;;;;;;;;13.80;12.40;;;;;14.27;73.85;101991.63;5016459;28;45371;-59
2022/10/03 03:44:53;;;;;;;;;13.40;13.40;;;;;14.10;73.93;101967.16;5000066;28;45323;-59
2022/10/03 03:47:35;;;;;;;;;10.80;9.60;;;;;14.37;74.20;102014.22;5017813;28;45304;-58
2022/10/03 03:50:26;;;;;;;;;12.00;11.80;;;;;14.16;73.91;101971.84;4983048;28;46099;-59
2022/10/03 03:53:15;;;;;;;;;15.00;12.80;;;;;14.54;73.86;102022.13;4979732;28;45746;-59
2022/10/03 03:55:47;;;;;;;;;13.00;13.00;;;;;14.56;73.54;102015.31;4980248;28;45422;-60
2022/10/03 03:58:51;;;;;;;;;16.00;12.00;;;;;14.60;73.79;102018.53;4980166;28;45732;-60
2022/10/03 04:01:23;;;;;;;;;10.80;9.60;;;;;14.66;73.39;102025.97;4963482;28;45460;-60
2022/10/03 04:03:57;;;;;;;;;14.00;14.00;;;;;14.54;73.89;102002.78;4997370;28;45305;-60
2022/10/03 04:06:52;;;;;;;;;16.00;14.40;;;;;14.46;74.22;102024.00;4963605;28;45456;-60
2022/10/03 04:09:47;;;;;;;;;16.60;14.40;;;;;14.42;74.48;102036.53;4982893;28;45320;-60
2022/10/03 04:12:36;;;;;;;;;14.00;14.00;;;;;14.44;74.25;102028.91;4997376;28;45438;-59
2022/10/03 04:15:53;;;;;;;;;17.80;15.80;;;;;14.47;74.08;102024.88;4965573;28;45421;-60
2022/10/03 04:21:24;;;;;;;;;16.80;15.60;;;;;14.51;74.34;102026.13;4997656;28;45416;-59
2022/10/03 04:24:20;;;;;;;;;26.20;17.40;;;;;14.53;73.87;102020.41;4996757;28;46324;-60
2022/10/03 04:27:10;;;;;;;;;19.20;16.60;;;;;14.52;73.46;102027.88;4963148;28;45308;-59
2022/10/03 04:29:46;;;;;;;;;27.00;21.60;;;;;14.54;73.67;102011.94;4978637;28;45498;-60
2022/10/03 04:32:56;;;;;;;;;24.00;17.20;;;;;14.58;73.49;102034.47;4997204;28;45381;-60
2022/10/03 04:35:21;;;;;;;;;18.60;17.20;;;;;14.59;73.50;102028.75;4963207;28;48052;-60
2022/10/03 04:38:20;;;;;;;;;23.00;17.00;;;;;14.59;73.56;102031.50;4996923;28;45355;-60
2022/10/03 04:40:53;;;;;;;;;24.60;17.00;;;;;14.50;73.09;102017.03;4938587;28;45581;-61
2022/10/03 04:43:35;;;;;;;;;19.60;19.60;;;;;14.36;72.98;101982.97;4963475;28;45425;-60
2022/10/03 04:46:24;;;;;;;;;24.80;21.20;;;;;14.60;73.17;102022.16;4979006;28;46358;-60
2022/10/03 04:48:59;;;;;;;;;18.20;17.00;;;;;14.45;72.90;102004.88;5006023;28;45465;-58
2022/10/03 04:51:35;;;;;;;;;18.60;16.00;;;;;14.57;73.35;102033.59;4994971;28;45497;-59
2022/10/03 04:54:06;;;;;;;;;17.60;17.60;;;;;14.31;72.74;101981.91;4998786;28;45455;-59
2022/10/03 04:57:06;;;;;;;;;19.60;17.00;;;;;14.56;73.18;102036.59;4981513;28;48448;-60
2022/10/03 04:59:41;;;;;;;;;11.60;11.20;;;;;14.47;72.62;102033.16;4984273;28;45453;-60
2022/10/03 05:02:16;;;;;;;;;13.60;13.20;;;;;14.39;72.93;102033.31;4982419;28;45371;-60
2022/10/03 05:05:03;;;;;;;;;16.60;11.20;;;;;14.34;73.16;102032.03;4982438;28;45404;-60
2022/10/03 05:07:40;;;;;;;;;10.80;9.40;;;;;14.38;72.98;102038.00;5001425;28;46575;-59
2022/10/03 05:10:34;;;;;;;;;13.20;13.20;;;;;14.29;73.29;102022.69;4999360;28;45507;-59
2022/10/03 05:13:07;;;;;;;;;20.00;16.20;;;;;14.35;73.24;102046.69;5016439;28;45348;-58
2022/10/03 05:15:39;;;;;;;;;20.60;16.20;;;;;14.29;73.06;102042.84;5015939;28;45547;-59
2022/10/03 05:18:17;;;;;;;;;18.20;15.80;;;;;14.23;73.09;102027.97;4982510;28;46675;-59
2022/10/03 05:20:58;;;;;;;;;18.20;17.00;;;;;14.32;72.96;102033.31;4982345;28;45439;-59
2022/10/03 05:23:47;;;;;;;;;17.60;14.20;;;;;14.34;73.16;102045.84;5015850;28;45395;-59
2022/10/03 05:26:27;;;;;;;;;16.00;15.00;;;;;14.37;73.16;102044.59;5015970;28;45357;-60
2022/10/03 05:29:10;;;;;;;;;24.60;18.20;;;;;14.38;73.15;102051.81;5015440;28;47392;-59
2022/10/03 05:31:56;;;;;;;;;18.20;15.80;;;;;14.38;73.39;102043.53;5015813;28;45313;-59
2022/10/03 05:34:57;;;;;;;;;20.20;16.00;;;;;14.37;73.04;102050.94;4998290;28;45490;-59
2022/10/03 05:38:03;;;;;;;;;19.60;18.00;;;;;14.33;73.06;102052.44;5016144;28;45645;-60
2022/10/03 05:40:29;;;;;;;;;20.60;15.80;;;;;14.22;72.77;102031.78;4997476;28;47754;-59
2022/10/03 05:43:20;;;;;;;;;19.00;15.80;;;;;14.34;73.30;102051.38;4997634;28;45427;-59
2022/10/03 05:45:48;;;;;;;;;18.20;17.60;;;;;14.32;73.42;102056.25;5000299;28;45356;-59
2022/10/03 05:48:44;;;;;;;;;24.80;19.20;;;;;14.30;73.18;102055.59;4997791;28;45395;-59
2022/10/03 05:51:21;;;;;;;;;21.60;17.40;;;;;14.13;73.43;102029.41;5014183;28;45500;-58
2022/10/03 05:54:08;;;;;;;;;22.40;17.80;;;;;14.33;73.52;102060.72;5015295;28;45230;-60
2022/10/03 05:56:52;;;;;;;;;17.20;15.80;;;;;14.29;72.97;102053.88;5015170;28;45288;-60
2022/10/03 05:59:44;;;;;;;;;11.60;11.60;;;;;14.26;73.50;102058.97;5014452;28;45294;-60
2022/10/03 06:02:47;;;;;;;;;13.00;12.00;;;;;14.27;72.96;102046.88;5014233;28;45382;-61
2022/10/03 06:05:33;;;;;;;;;18.40;13.80;;;;;14.05;72.85;102017.44;5015073;28;45478;-61
2022/10/03 06:08:19;;;;;;;;;21.60;19.20;;;;;14.17;72.82;102027.91;4996908;28;45511;-59
2022/10/03 06:11:21;;;;;;;;;20.40;16.20;;;;;14.10;72.49;102017.69;5013835;28;45495;-59
2022/10/03 06:14:16;;;;;;;;;13.80;13.20;;;;;14.20;72.36;102038.56;5015032;28;45632;-59
2022/10/03 06:17:11;;;;;;;;;23.00;17.60;;;;;14.17;71.66;102041.72;5015591;28;45776;-59
2022/10/03 06:19:50;;;;;;;;;22.40;20.60;;;;;14.13;71.83;102044.03;5014093;28;45539;-59
2022/10/03 06:22:49;;;;;;;;;26.20;19.80;;;;;13.90;71.71;102028.63;5013937;28;45321;-59
2022/10/03 06:25:25;;;;;;;;;14.80;12.40;;;;;14.04;70.89;102053.56;5014767;28;45327;-59
2022/10/03 06:28:47;;;;;;;;;12.40;12.20;;;;;13.98;70.91;102065.41;5013586;28;45431;-60
2022/10/03 06:31:43;;;;;;;;;12.80;8.00;;;;;13.94;70.29;102078.75;4905352;28;45287;-59
2022/10/03 06:34:30;;;;;;;;;11.20;11.20;;;;;13.74;70.03;102042.72;5015561;28;45454;-58
2022/10/03 06:37:08;;;;;;;;;13.80;12.20;;;;;13.84;69.94;102059.78;5013815;28;48373;-60
2022/10/03 06:40:01;;;;;;;;;10.00;10.00;;;;;13.81;70.50;102061.06;5014901;28;45374;-59
2022/10/03 06:42:51;;;;;;;;;11.80;11.20;;;;;13.80;70.60;102067.63;5015172;28;45745;-60
2022/10/03 06:45:48;;;;;;;;;12.40;11.00;;;;;13.77;70.81;102067.19;4997454;28;45505;-59
2022/10/03 06:48:23;;;;;;;;;14.60;11.60;;;;;13.71;70.55;102079.00;5013215;28;47207;-60
2022/10/03 06:51:23;;;;;;;;;13.00;11.80;;;;;13.63;71.35;102080.00;4997100;28;45320;-59
2022/10/03 06:54:36;;;;;;;;;14.60;11.60;;;;;13.68;70.99;102075.56;5014873;28;45377;-60
2022/10/03 06:57:29;;;;;;;;;11.00;9.20;;;;;13.71;70.77;102076.25;4922185;28;45462;-59
2022/10/03 07:00:05;;;;;;;;;19.40;14.60;;;;;13.73;70.90;102083.28;4997823;28;46240;-61
2022/10/03 07:03:05;;;;;;;;;19.80;18.00;;;;;13.73;70.75;102082.41;5014899;28;45320;-61
2022/10/03 07:05:55;;;;;;;;;20.00;17.00;;;;;13.74;70.61;102084.97;5014773;28;45367;-61
2022/10/03 07:09:14;;;;;;;;;19.20;14.40;;;;;13.73;71.57;102087.94;5015304;28;45471;-62
2022/10/03 07:11:45;;;;;;;;;16.80;13.60;;;;;13.51;70.76;102049.38;4961162;28;46451;-62
2022/10/03 07:14:15;;;;;;;;;15.00;14.60;;;;;13.77;71.00;102095.59;5018025;28;45335;-61
2022/10/03 07:17:03;;;;;;;;;14.20;12.80;;;;;13.85;71.05;102099.25;5018114;28;45324;-60
2022/10/03 07:19:37;;;;;;;;;16.80;15.40;;;;;13.83;70.86;102091.22;5000611;28;45660;-59
2022/10/03 07:22:09;;;;;;;;;17.40;17.40;;;;;13.83;70.94;102099.50;4990801;28;46019;-60
2022/10/03 07:27:57;;;;;;;;;22.40;17.00;;;;;13.67;70.83;102068.38;5009136;28;46090;-58
2022/10/03 07:30:23;;;;;;;;;12.40;12.40;;;;;13.87;71.12;102091.66;5017672;28;45375;-60
2022/10/03 07:33:26;;;;;;;;;15.40;15.40;;;;;13.88;71.07;102098.88;4999828;28;45555;-61
2022/10/03 07:38:57;;;;;;;;;17.80;13.00;;;;;13.73;71.16;102079.66;5002410;28;45404;-60
2022/10/03 07:41:59;;;;;;;;;13.20;12.80;;;;;13.80;71.16;102083.31;5000222;28;45450;-60
2022/10/03 07:44:46;;;;;;;;;16.60;15.00;;;;;13.94;71.40;102104.44;4999113;28;47912;-61
2022/10/03 07:47:50;;;;;;;;;16.00;10.20;;;;;13.85;71.25;102085.47;5017080;28;45407;-61
2022/10/03 07:50:37;;;;;;;;;15.00;12.40;;;;;14.00;71.19;102102.78;4988935;28;46574;-60
2022/10/03 07:53:23;;;;;;;;;13.80;13.80;;;;;13.41;71.29;102000.03;5014474;28;45489;-60
2022/10/03 07:56:07;;;;;;;;;16.80;13.00;;;;;14.10;71.13;102119.00;5015730;28;45375;-61
2022/10/03 07:58:58;;;;;;;;;13.60;13.00;;;;;14.04;70.57;102094.97;5015520;28;45335;-59
2022/10/03 08:02:07;;;;;;;;;14.60;14.60;;;;;14.13;70.49;102112.22;4983302;28;45341;-59
2022/10/03 08:04:51;;;;;;;;;22.40;16.40;;;;;14.02;71.07;102108.97;5014397;28;45510;-59
2022/10/03 08:07:19;;;;;;;;;12.20;12.00;;;;;14.06;69.82;102114.91;5015560;28;45726;-60
2022/10/03 08:09:50;;;;;;;;;15.60;14.60;;;;;14.11;69.73;102126.22;5015668;28;45945;-60
2022/10/03 08:12:30;;;;;;;;;20.00;16.80;;;;;14.15;69.87;102127.50;5015784;28;45938;-61
2022/10/03 08:15:03;;;;;;;;;24.20;19.80;;;;;14.08;69.41;102134.88;4996904;28;45545;-60
2022/10/03 08:17:50;;;;;;;;;25.20;23.40;;;;;14.08;69.80;102130.22;5015430;28;48099;-61
2022/10/03 08:20:34;;;;;;;;;16.80;16.00;;;;;14.14;69.56;102131.31;5015606;28;45375;-60
2022/10/03 08:23:07;;;;;;;;;17.40;17.00;;;;;14.12;70.29;102125.16;5014386;28;45737;-59
2022/10/03 08:25:57;;;;;;;;;21.00;16.00;;;;;14.02;70.19;102097.03;4986736;28;45430;-60
2022/10/03 08:28:41;;;;;;;;;15.60;13.80;;;;;14.29;69.53;102119.34;4996953;28;45808;-60
2022/10/03 08:31:29;;;;;;;;;19.40;17.20;;;;;14.37;69.24;102127.44;4997358;28;45437;-60
2022/10/03 08:34:25;;;;;;;;;26.40;19.40;;;;;14.37;69.21;102102.59;4997577;28;45560;-61
2022/10/03 08:36:56;;;;;;;;;20.20;17.60;;;;;14.37;69.24;102089.63;5015323;28;45391;-61
2022/10/03 08:40:00;;;;;;;;;18.60;18.20;;;;;14.47;68.22;102122.38;5014167;28;45462;-61
2022/10/03 08:42:31;;;;;;;;;14.60;14.60;;;;;14.49;68.64;102116.66;4983802;28;46029;-61
2022/10/03 08:45:21;;;;;;;;;18.80;16.40;;;;;14.46;68.65;102114.31;5015247;28;45532;-62
2022/10/03 08:48:11;;;;;;;;;21.00;16.20;;;;;14.52;68.83;102118.16;5015759;28;45650;-61
2022/10/03 08:50:43;;;;;;;;;20.20;18.20;;;;;14.19;68.57;102065.31;5000453;28;45951;-62
2022/10/03 08:53:30;;;;;;;;;21.40;20.00;;;;;14.39;68.45;102086.66;4995866;28;45383;-61
2022/10/03 08:55:59;;;;;;;;;16.80;15.80;;;;;14.47;68.65;102108.56;5015407;28;45434;-63
2022/10/03 08:58:28;;;;;;;;;25.20;20.80;;;;;14.43;68.43;102114.72;4997715;28;45336;-63
2022/10/03 09:01:17;;;;;;;;;22.60;21.00;;;;;14.39;68.48;102100.47;5014931;28;46951;-61
2022/10/03 09:04:20;;;;;;;;;25.40;23.40;;;;;14.39;68.92;102114.28;5014212;28;45487;-61
2022/10/03 09:07:12;;;;;;;;;21.80;19.00;;;;;14.40;68.73;102110.44;5014840;28;45475;-62
2022/10/03 09:10:06;;;;;;;;;28.00;23.80;;;;;14.32;69.55;102113.38;4997763;28;45754;-65
2022/10/03 09:13:00;;;;;;;;;26.80;23.20;;;;;14.12;69.38;102075.47;5008765;28;46444;-61
2022/10/03 09:15:31;;;;;;;;;21.60;19.80;;;;;14.40;69.09;102109.63;5008541;28;45251;-64
2022/10/03 09:18:08;;;;;;;;;19.60;17.40;;;;;14.35;68.58;102112.97;5014531;28;45513;-57
2022/10/03 09:21:09;;;;;;;;;18.40;18.20;;;;;14.29;68.38;102103.59;5013956;28;45403;-61
2022/10/03 09:23:59;;;;;;;;;23.00;22.20;;;;;14.36;68.49;102118.28;5012609;28;46136;-62
2022/10/03 09:27:15;;;;;;;;;20.40;19.00;;;;;14.49;68.67;102142.41;4995836;28;46019;-61
2022/10/03 09:30:18;;;;;;;;;24.20;20.20;;;;;14.56;68.26;102153.47;4964949;28;46277;-60
2022/10/03 09:32:47;;;;;;;;;23.00;21.40;;;;;14.46;68.02;102139.19;4986671;28;45565;-59
2022/10/03 09:35:32;;;;;;;;;25.20;20.80;;;;;14.46;68.62;102162.13;5012534;28;46756;-60
2022/10/03 09:38:36;;;;;;;;;26.20;25.00;;;;;14.39;69.10;102161.22;4994898;28;45498;-60
2022/10/03 09:41:33;;;;;;;;;36.80;25.20;;;;;14.49;68.75;102164.50;4974423;28;45361;-60
2022/10/03 09:44:28;;;;;;;;;26.40;24.80;;;;;14.50;68.79;102157.91;4996267;28;45382;-60
2022/10/03 09:47:21;;;;;;;;;32.60;27.00;;;;;14.55;68.82;102151.75;4995887;28;46119;-63
2022/10/03 09:50:07;;;;;;;;;25.80;23.20;;;;;14.60;68.95;102153.91;4993620;28;45814;-60
2022/10/03 09:52:45;;;;;;;;;29.60;25.00;;;;;14.66;68.29;102157.78;4981706;28;45834;-61
2022/10/03 09:55:30;;;;;;;;;28.60;24.80;;;;;14.69;68.16;102147.16;4996109;28;45646;-60
2022/10/03 09:58:07;;;;;;;;;29.20;26.00;;;;;14.71;68.46;102141.41;5012498;28;46726;-61
2022/10/03 10:00:51;;;;;;;;;31.40;25.00;;;;;14.76;67.75;102142.56;5012869;28;45483;-61
2022/10/03 10:03:33;;;;;;;;;28.00;25.60;;;;;14.82;68.32;102129.81;5014047;28;45548;-61
2022/10/03 10:06:07;;;;;;;;;33.60;26.00;;;;;14.64;67.81;102113.75;4978601;28;45926;-60
2022/10/03 10:08:44;;;;;;;;;36.40;30.20;;;;;14.85;67.62;102126.66;4995025;28;48220;-61
2022/10/03 10:11:15;;;;;;;;;29.40;27.20;;;;;14.94;67.84;102126.47;5014372;28;45474;-60
2022/10/03 10:14:12;;;;;;;;;30.00;27.60;;;;;14.99;67.61;102115.63;5014197;28;45334;-59
2022/10/03 10:16:52;;;;;;;;;31.20;28.80;;;;;14.99;66.97;102110.94;5013872;28;45533;-60
2022/10/03 10:19:40;;;;;;;;;29.20;26.00;;;;;14.98;67.10;102122.19;4996222;28;46821;-63
2022/10/03 10:22:14;;;;;;;;;26.60;25.60;;;;;15.03;67.33;102116.91;5013916;28;45283;-60
2022/10/03 10:24:58;;;;;;;;;30.40;28.40;;;;;15.11;66.80;102125.00;5014233;28;45411;-60
2022/10/03 10:27:47;;;;;;;;;21.40;19.60;;;;;15.17;66.44;102134.38;5013933;28;45393;-58
2022/10/03 10:30:18;;;;;;;;;25.60;21.20;;;;;15.23;66.82;102122.50;4945237;28;45864;-60
2022/10/03 10:32:53;;;;;;;;;27.00;21.60;;;;;15.27;66.57;102122.94;5013161;28;45354;-60
2022/10/03 10:35:44;;;;;;;;;25.40;24.40;;;;;15.29;66.04;102129.94;5014190;28;45393;-60
2022/10/03 10:38:28;;;;;;;;;27.20;26.00;;;;;15.25;66.55;102134.19;5014050;28;45558;-59
2022/10/03 10:41:39;;;;;;;;;27.60;24.20;;;;;15.24;66.90;102126.97;4993785;28;47100;-60
2022/10/03 10:44:27;;;;;;;;;30.20;25.80;;;;;15.27;66.53;102114.63;4958794;28;45536;-59
2022/10/03 10:47:10;;;;;;;;;22.40;21.20;;;;;15.11;66.38;102091.81;4978327;28;45509;-64
2022/10/03 10:50:32;;;;;;;;;29.00;26.20;;;;;15.30;66.11;102108.66;5014670;28;45441;-61
2022/10/03 10:53:36;;;;;;;;;23.20;21.80;;;;;15.13;66.36;102080.56;4953215;28;45467;-60
2022/10/03 10:56:05;;;;;;;;;28.40;22.40;;;;;15.39;65.92;102110.19;4932885;28;45583;-61
2022/10/03 10:59:07;;;;;;;;;32.60;24.80;;;;;15.29;65.97;102085.69;4998148;28;45559;-60
2022/10/03 11:02:01;;;;;;;;;25.20;25.00;;;;;15.48;65.15;102115.50;5012312;28;45481;-60
2022/10/03 11:05:05;;;;;;;;;21.40;20.00;;;;;15.51;64.88;102126.13;4992292;28;47630;-60
2022/10/03 11:07:43;;;;;;;;;21.80;20.20;;;;;15.51;64.67;102123.38;4994617;28;45510;-60
2022/10/03 11:10:17;;;;;;;;;22.20;18.40;;;;;15.42;64.63;102126.34;4995364;28;45414;-60
2022/10/03 11:13:00;;;;;;;;;20.00;18.80;;;;;15.36;65.25;102120.81;4994626;28;45435;-59
2022/10/03 11:15:35;;;;;;;;;25.00;23.60;;;;;15.35;65.11;102121.84;4994720;28;46964;-59
2022/10/03 11:18:18;;;;;;;;;26.00;22.00;;;;;15.39;65.40;102123.16;4976963;28;45408;-61
2022/10/03 11:21:18;;;;;;;;;25.80;21.40;;;;;15.39;65.44;102124.00;4994930;28;45425;-61
2022/10/03 11:23:49;;;;;;;;;24.60;21.60;;;;;15.44;65.72;102118.66;4994774;28;45431;-61
2022/10/03 11:26:23;;;;;;;;;30.80;26.80;;;;;15.28;64.77;102086.75;4994402;28;46718;-60
2022/10/03 11:28:51;;;;;;;;;26.00;24.20;;;;;15.51;64.34;102110.41;4994364;28;45360;-60
2022/10/03 11:31:29;;;;;;;;;31.20;27.40;;;;;15.56;65.07;102120.81;4994468;28;45468;-61
2022/10/03 11:34:26;;;;;;;;;27.80;27.80;;;;;15.62;64.66;102121.91;4993183;28;45444;-59
2022/10/03 11:37:10;;;;;;;;;34.40;31.40;;;;;15.43;63.84;102092.06;4958618;28;47034;-61
2022/10/03 11:39:42;;;;;;;;;24.80;22.80;;;;;15.40;64.41;102091.66;4993651;28;45301;-62
2022/10/03 11:42:32;;;;;;;;;25.60;24.80;;;;;15.51;63.70;102104.84;4993678;28;45463;-59
2022/10/03 11:45:28;;;;;;;;;31.20;27.60;;;;;15.47;63.92;102106.34;4981687;28;45490;-62
2022/10/03 11:48:58;;;;;;;;;26.20;22.60;;;;;15.42;64.56;102095.06;4975462;28;47351;-60
2022/10/03 11:51:46;;;;;;;;;24.20;23.00;;;;;15.49;64.20;102095.94;4992635;28;45324;-60
2022/10/03 11:54:35;;;;;;;;;23.80;21.80;;;;;15.55;64.00;102095.09;4975577;28;45487;-61
2022/10/03 11:57:09;;;;;;;;;22.20;20.60;;;;;15.53;64.40;102091.66;4978383;28;45448;-62
2022/10/03 11:59:59;;;;;;;;;26.40;25.40;;;;;15.64;63.02;102098.47;5010790;28;46158;-59
2022/10/03 12:02:59;;;;;;;;;29.00;25.80;;;;;15.62;63.58;102108.06;4996767;28;45508;-60
2022/10/03 12:09:18;;;;;;;;;24.20;20.80;;;;;15.59;63.49;102096.34;5010922;28;45406;-61
2022/10/03 12:12:14;;;;;;;;;23.60;23.40;;;;;15.64;63.33;102098.47;4997624;28;45580;-60
2022/10/03 12:14:45;;;;;;;;;24.40;23.20;;;;;15.63;63.38;102094.00;5009987;28;45398;-60
2022/10/03 12:17:38;;;;;;;;;23.80;23.60;;;;;15.53;64.08;102094.41;4976806;28;45805;-60
2022/10/03 12:20:23;;;;;;;;;20.40;18.80;;;;;15.47;63.58;102086.97;4981410;28;45491;-59
2022/10/03 12:23:13;;;;;;;;;24.00;19.40;;;;;15.54;64.09;102075.91;4998822;28;45820;-62
2022/10/03 12:25:39;;;;;;;;;25.00;19.60;;;;;15.53;63.79;102064.00;4978967;28;45384;-60
2022/10/03 12:28:11;;;;;;;;;25.50;21.75;;;;;15.54;63.70;102049.09;4990033;28;45414;-62
2022/10/03 12:30:44;;;;;;;;;21.20;20.80;;;;;15.65;63.24;102077.19;4954169;28;45788;-62
2022/10/03 12:33:41;;;;;;;;;29.60;24.80;;;;;15.62;63.91;102058.25;5009382;28;45437;-60
2022/10/03 12:36:14;;;;;;;;;24.00;21.40;;;;;15.89;63.80;102066.53;4968731;28;45569;-59
2022/10/03 12:38:57;;;;;;;;;24.00;21.40;;;;;16.05;63.33;102068.00;4995819;28;45447;-60
2022/10/03 12:41:35;;;;;;;;;26.20;24.20;;;;;16.02;62.59;102062.91;4995377;28;45540;-59
2022/10/03 12:44:37;;;;;;;;;23.20;20.80;;;;;16.07;63.16;102066.72;5014869;28;46286;-59
2022/10/03 12:47:20;;;;;;;;;20.80;20.80;;;;;16.02;62.73;102057.38;4983504;28;45470;-60
2022/10/03 12:50:07;;;;;;;;;21.60;21.60;;;;;16.03;62.37;102062.69;4973089;28;45952;-59